Time;durP1;ratioP1;P1;durP2;ratioP2;P2;SDS_P1;SDS_P2;PMS_P1;PMS_P2;Temp;Humidity;BMP_temperature;BMP_pressure;BME280_temperature;BME280_humidity;BME280_pressure;Samples;Min_cycle;Max_cycle;Signal;HPM_P1;HPM_P2
2023/01/31 00:04:44;;;;;;;20.70;6.60;;;4.00;99.90;;;;;;2615805;54;20382;-76
2023/01/31 00:10:32;;;;;;;25.10;6.50;;;4.10;99.90;;;;;;2615614;54;20135;-76
2023/01/31 00:16:21;;;;;;;21.73;6.30;;;4.30;99.90;;;;;;2616040;54;20787;-77
2023/01/31 00:22:08;;;;;;;14.40;5.73;;;4.30;99.90;;;;;;2613784;46;20386;-76
2023/01/31 00:27:57;;;;;;;12.50;4.97;;;4.40;99.90;;;;;;2616205;54;20131;-77
2023/01/31 00:31:09;;;;;;;14.70;5.93;;;4.50;99.90;;;;;;2615249;47;20419;-77
2023/01/31 00:33:36;;;;;;;16.87;6.30;;;4.40;99.90;;;;;;2615311;46;20394;-78
2023/01/31 00:39:24;;;;;;;16.80;6.80;;;4.40;99.90;;;;;;2616299;39;20791;-76
2023/01/31 00:45:12;;;;;;;22.90;8.23;;;4.40;99.90;;;;;;2616090;54;20182;-76
2023/01/31 00:50:59;;;;;;;20.70;8.60;;;4.40;99.90;;;;;;2613618;54;20536;-76
2023/01/31 00:56:47;;;;;;;23.63;7.13;;;4.30;99.90;;;;;;2616242;39;20591;-76
2023/01/31 01:02:35;;;;;;;17.90;8.13;;;4.30;99.90;;;;;;2613510;54;20134;-77
2023/01/31 01:08:22;;;;;;;17.27;8.70;;;4.40;99.90;;;;;;2616130;54;20129;-78
2023/01/31 01:11:26;;;;;;;23.73;10.87;;;4.40;99.90;;;;;;2615205;54;20961;-77
2023/01/31 01:13:52;;;;;;;33.97;8.10;;;4.40;99.90;;;;;;2615586;54;20719;-77
2023/01/31 01:19:39;;;;;;;23.60;8.60;;;4.50;99.90;;;;;;2614784;39;20758;-76
2023/01/31 01:25:27;;;;;;;23.07;7.63;;;4.30;99.90;;;;;;2615886;54;20182;-78
2023/01/31 01:31:16;;;;;;;19.60;9.13;;;4.30;99.90;;;;;;2614051;54;20154;-78
2023/01/31 01:37:10;;;;;;;17.53;7.60;;;4.10;99.90;;;;;;2616221;54;20358;-77
2023/01/31 01:42:58;;;;;;;19.70;6.97;;;4.00;99.90;;;;;;2615902;54;20373;-77
2023/01/31 01:48:49;;;;;;;14.77;5.80;;;4.00;99.90;;;;;;2616684;39;20502;-77
2023/01/31 01:54:50;;;;;;;34.03;10.50;;;4.10;99.90;;;;;;2616446;54;20398;-77
2023/01/31 02:00:38;;;;;;;17.43;10.27;;;4.00;99.90;;;;;;2614477;54;20374;-77
2023/01/31 02:06:25;;;;;;;15.97;6.57;;;3.90;99.90;;;;;;2616858;54;20178;-78
2023/01/31 02:12:13;;;;;;;14.73;8.13;;;3.90;99.90;;;;;;2616690;54;20644;-78
2023/01/31 02:18:01;;;;;;;13.80;7.73;;;3.80;99.90;;;;;;2617163;39;20759;-78
2023/01/31 02:31:14;;;;;;;10.07;5.80;;;3.80;99.90;;;;;;2615705;54;20417;-77
2023/01/31 02:56:38;;;;;;;18.07;6.70;;;4.10;99.90;;;;;;2614340;54;20366;-76
2023/01/31 03:02:26;;;;;;;12.90;6.83;;;4.20;99.90;;;;;;2613545;54;20432;-77
2023/01/31 03:08:15;;;;;;;29.03;7.53;;;4.30;99.90;;;;;;2615318;39;20856;-78
2023/01/31 03:14:16;;;;;;;21.30;6.70;;;4.40;99.90;;;;;;2615329;54;20387;-77
2023/01/31 03:20:19;;;;;;;6.73;4.33;;;4.50;99.90;;;;;;2615051;54;20327;-77
2023/01/31 03:26:08;;;;;;;20.67;7.50;;;4.40;99.90;;;;;;2615567;54;20379;-77
2023/01/31 03:35:45;;;;;;;12.37;6.67;;;4.30;99.90;;;;;;2616201;54;20431;-78
2023/01/31 03:47:53;;;;;;;10.60;5.50;;;4.40;99.90;;;;;;2613486;54;20381;-77
2023/01/31 04:00:15;;;;;;;17.77;6.23;;;4.40;99.90;;;;;;2614822;54;20443;-78
2023/01/31 04:06:02;;;;;;;12.07;5.87;;;4.30;99.90;;;;;;2612479;54;20355;-79
2023/01/31 04:11:50;;;;;;;12.77;7.13;;;4.20;99.90;;;;;;2614342;54;20202;-79
2023/01/31 04:17:37;;;;;;;20.90;7.30;;;3.90;99.90;;;;;;2614995;54;20396;-77
2023/01/31 04:23:25;;;;;;;14.83;7.83;;;4.00;99.90;;;;;;2614785;54;20126;-78
2023/01/31 04:29:12;;;;;;;26.23;7.63;;;4.00;99.90;;;;;;2614038;54;20783;-77
2023/01/31 04:34:59;;;;;;;18.73;9.63;;;4.10;99.90;;;;;;2614311;54;21550;-77
2023/01/31 04:40:47;;;;;;;18.00;9.00;;;4.20;99.90;;;;;;2616173;54;20155;-77
2023/01/31 04:46:35;;;;;;;20.67;8.90;;;4.20;99.90;;;;;;2616261;54;20135;-77
2023/01/31 04:52:23;;;;;;;12.73;6.90;;;4.30;99.90;;;;;;2615940;54;20150;-77
2023/01/31 04:58:11;;;;;;;15.77;8.07;;;4.60;99.90;;;;;;2615583;54;20384;-77
2023/01/31 05:03:59;;;;;;;20.20;9.40;;;4.60;99.90;;;;;;2615789;54;20683;-77
2023/01/31 05:09:46;;;;;;;13.00;6.07;;;4.70;99.90;;;;;;2616190;54;20138;-77
2023/01/31 05:15:34;;;;;;;18.70;10.87;;;4.70;99.90;;;;;;2615148;54;20135;-76
2023/01/31 05:21:22;;;;;;;19.83;8.70;;;4.80;99.90;;;;;;2616611;54;20170;-78
2023/01/31 05:27:09;;;;;;;18.17;8.87;;;4.80;99.90;;;;;;2616134;54;20126;-78
2023/01/31 05:32:57;;;;;;;16.93;8.37;;;4.80;99.90;;;;;;2616761;54;20197;-77
2023/01/31 05:38:47;;;;;;;10.57;7.63;;;4.80;99.90;;;;;;2616991;54;20138;-78
2023/01/31 05:44:34;;;;;;;23.30;9.43;;;4.70;99.90;;;;;;2616190;54;20421;-77
2023/01/31 05:50:22;;;;;;;19.67;8.90;;;4.70;99.90;;;;;;2616843;54;20158;-77
2023/01/31 05:56:10;;;;;;;18.57;9.80;;;4.70;99.90;;;;;;2616803;54;20377;-78
2023/01/31 06:01:58;;;;;;;18.53;10.70;;;4.60;99.90;;;;;;2616200;54;20129;-78
2023/01/31 06:07:45;;;;;;;22.17;10.80;;;4.70;99.90;;;;;;2616826;54;20118;-78
2023/01/31 06:13:33;;;;;;;17.70;10.10;;;4.70;99.90;;;;;;2617254;54;20119;-77
2023/01/31 06:19:24;;;;;;;13.77;8.33;;;4.70;99.90;;;;;;2617242;54;20130;-77
2023/01/31 06:25:14;;;;;;;16.47;8.83;;;4.70;99.90;;;;;;2616951;54;20430;-76
2023/01/31 06:31:07;;;;;;;16.57;8.73;;;4.80;99.90;;;;;;2616927;54;20362;-76
2023/01/31 06:36:55;;;;;;;10.43;7.50;;;4.80;99.90;;;;;;2616400;54;20406;-76
2023/01/31 06:42:42;;;;;;;17.23;8.20;;;4.90;99.90;;;;;;2615445;54;20219;-75
2023/01/31 06:48:30;;;;;;;16.20;9.53;;;4.90;99.90;;;;;;2616879;54;20122;-77
2023/01/31 06:54:18;;;;;;;12.90;8.30;;;4.90;99.90;;;;;;2616914;54;20134;-77
2023/01/31 07:00:06;;;;;;;19.23;11.17;;;4.80;99.90;;;;;;2616953;54;20122;-76
2023/01/31 07:05:54;;;;;;;17.87;7.00;;;4.80;99.90;;;;;;2612367;54;20410;-77
2023/01/31 07:08:57;;;;;;;18.27;8.60;;;4.90;99.90;;;;;;2615229;47;20435;-77
2023/01/31 07:11:23;;;;;;;20.37;9.60;;;4.80;99.90;;;;;;2615213;54;20258;-75
2023/01/31 07:17:10;;;;;;;19.93;9.77;;;4.80;99.90;;;;;;2614720;54;20133;-77
2023/01/31 07:22:58;;;;;;;20.17;9.93;;;4.90;99.90;;;;;;2615186;54;20174;-78
2023/01/31 07:28:47;;;;;;;27.90;13.53;;;4.90;99.90;;;;;;2615758;54;20411;-79
2023/01/31 07:41:27;;;;;;;16.97;9.23;;;5.00;99.90;;;;;;2613453;54;20398;-78
2023/01/31 07:43:53;;;;;;;20.50;9.70;;;5.10;99.90;;;;;;2613806;39;20794;-77
2023/01/31 07:46:19;;;;;;;15.33;10.07;;;5.10;99.90;;;;;;2612895;54;20199;-79
2023/01/31 07:49:16;;;;;;;15.23;8.40;;;5.10;99.90;;;;;;2613953;39;20574;-77
2023/01/31 07:51:41;;;;;;;25.37;9.57;;;5.20;99.90;;;;;;2613088;47;20162;-77
2023/01/31 07:57:30;;;;;;;18.57;9.77;;;5.30;99.90;;;;;;2615277;39;20613;-77
2023/01/31 08:09:31;;;;;;;16.17;7.97;;;5.30;99.90;;;;;;2614529;54;20444;-78
2023/01/31 08:15:18;;;;;;;15.27;7.27;;;5.30;99.90;;;;;;2616867;39;20550;-76
2023/01/31 08:21:09;;;;;;;12.03;8.10;;;5.30;99.90;;;;;;2616744;54;20166;-78
2023/01/31 08:26:58;;;;;;;23.50;8.17;;;5.40;99.90;;;;;;2616810;39;20768;-75
2023/01/31 08:36:15;;;;;;;16.80;6.40;;;5.30;99.90;;;;;;2615312;54;20925;-76
2023/01/31 08:42:03;;;;;;;17.00;8.63;;;5.20;99.90;;;;;;2612922;54;20390;-77
2023/01/31 08:47:59;;;;;;;26.33;6.53;;;4.90;99.90;;;;;;2613855;39;20561;-77
2023/01/31 08:53:47;;;;;;;14.03;7.30;;;4.80;99.90;;;;;;2614699;46;20399;-76
2023/01/31 08:59:35;;;;;;;20.37;9.30;;;4.70;99.90;;;;;;2615507;54;20395;-76
2023/01/31 09:05:24;;;;;;;12.20;5.83;;;4.70;99.90;;;;;;2615139;54;20127;-76
2023/01/31 09:11:17;;;;;;;17.40;7.60;;;4.70;99.90;;;;;;2614894;54;21009;-77
2023/01/31 09:17:06;;;;;;;15.67;6.97;;;4.80;99.90;;;;;;2615089;54;20931;-76
2023/01/31 09:22:54;;;;;;;8.80;5.60;;;5.00;99.90;;;;;;2615432;54;20376;-76
2023/01/31 09:28:42;;;;;;;16.10;5.67;;;5.10;99.90;;;;;;2615789;54;20118;-76
2023/01/31 09:31:42;;;;;;;12.80;6.10;;;5.20;99.90;;;;;;2613927;47;20403;-76
2023/01/31 09:34:08;;;;;;;20.17;6.67;;;5.20;99.90;;;;;;2615872;54;20414;-76
2023/01/31 09:39:56;;;;;;;19.33;6.67;;;5.20;99.90;;;;;;2614711;54;20130;-76
2023/01/31 09:45:46;;;;;;;15.70;4.73;;;5.30;99.90;;;;;;2613054;54;21416;-77
2023/01/31 09:51:34;;;;;;;19.23;6.60;;;5.50;99.90;;;;;;2613469;54;20375;-76
2023/01/31 10:01:29;;;;;;;12.07;4.80;;;5.20;99.90;;;;;;2614131;54;20377;-76
2023/01/31 10:13:53;;;;;;;6.60;3.57;;;5.40;99.90;;;;;;2614604;54;20406;-76
2023/01/31 10:16:35;;;;;;;12.97;5.60;;;5.40;99.90;;;;;;2612505;54;20435;-75
2023/01/31 10:19:10;;;;;;;21.03;6.60;;;5.40;99.90;;;;;;2612143;54;20402;-76
2023/01/31 10:28:25;;;;;;;8.10;4.50;;;5.50;99.90;;;;;;2612464;54;21601;-76
2023/01/31 10:34:49;;;;;;;7.43;5.30;;;5.50;99.90;;;;;;2610681;54;20487;-75
2023/01/31 10:57:23;;;;;;;16.13;6.87;;;5.60;99.90;;;;;;2615821;54;20475;-75
2023/01/31 11:03:12;;;;;;;16.10;7.73;;;5.70;99.90;;;;;;2614088;54;20486;-74
2023/01/31 11:09:01;;;;;;;17.20;6.93;;;5.70;99.90;;;;;;2615407;54;20394;-75
2023/01/31 11:15:17;;;;;;;11.43;5.37;;;5.70;99.90;;;;;;2616442;54;20375;-75
2023/01/31 11:21:05;;;;;;;10.93;5.43;;;5.90;99.90;;;;;;2614737;54;20438;-75
2023/01/31 11:37:46;;;;;;;14.27;5.77;;;6.20;99.90;;;;;;2616177;54;20479;-76
2023/01/31 11:43:33;;;;;;;7.10;5.97;;;6.30;99.90;;;;;;2614173;54;20387;-77
2023/01/31 11:49:28;;;;;;;20.27;8.60;;;6.30;99.90;;;;;;2614083;54;20952;-77
2023/01/31 11:55:17;;;;;;;17.70;7.67;;;6.40;99.90;;;;;;2615368;54;20996;-75
2023/01/31 12:01:12;;;;;;;15.23;8.73;;;6.50;99.90;;;;;;2614799;54;20354;-77
2023/01/31 12:07:04;;;;;;;24.47;8.10;;;6.60;99.90;;;;;;2614867;54;20411;-76
2023/01/31 12:12:53;;;;;;;17.10;9.63;;;6.60;99.90;;;;;;2615781;54;20410;-76
2023/01/31 12:36:05;;;;;;;23.40;9.23;;;6.70;99.90;;;;;;2614253;54;21080;-77
2023/01/31 12:48:47;;;;;;;23.60;14.23;;;6.70;99.90;;;;;;2615431;39;20826;-76
2023/01/31 13:09:02;;;;;;;15.30;12.97;;;6.90;99.90;;;;;;2614146;54;20501;-76
2023/01/31 13:38:33;;;;;;;19.97;11.97;;;6.00;99.90;;;;;;2615115;46;20491;-76
2023/01/31 13:44:20;;;;;;;18.60;12.60;;;6.10;99.90;;;;;;2615018;54;21376;-77
2023/01/31 13:57:02;;;;;;;20.97;13.67;;;6.10;99.90;;;;;;2614019;54;20953;-77
2023/01/31 14:03:03;;;;;;;20.03;13.80;;;6.10;99.90;;;;;;2614623;54;20362;-77
2023/01/31 14:08:50;;;;;;;19.67;12.63;;;6.20;99.90;;;;;;2614637;54;20366;-76
2023/01/31 14:14:40;;;;;;;20.30;12.47;;;6.20;99.90;;;;;;2614423;54;20170;-76
2023/01/31 14:20:30;;;;;;;23.50;12.00;;;6.30;99.90;;;;;;2615765;39;20870;-76
2023/01/31 14:26:41;;;;;;;19.30;14.90;;;6.40;99.90;;;;;;2615624;54;20424;-76
2023/01/31 14:39:26;;;;;;;26.27;14.43;;;6.50;99.90;;;;;;2614541;39;20501;-77
2023/01/31 14:58:41;;;;;;;17.73;9.80;;;6.60;99.90;;;;;;2613104;54;20374;-76
2023/01/31 15:04:28;;;;;;;13.70;12.07;;;6.70;99.90;;;;;;2614368;54;20406;-76
2023/01/31 15:10:52;;;;;;;19.33;14.07;;;6.80;99.90;;;;;;2613559;54;20155;-73
2023/01/31 15:16:40;;;;;;;15.90;11.60;;;6.80;99.90;;;;;;2615721;54;20388;-74
2023/01/31 15:22:29;;;;;;;17.27;12.60;;;6.90;99.90;;;;;;2615734;54;20170;-76
2023/01/31 15:28:21;;;;;;;23.83;16.63;;;6.80;99.90;;;;;;2616051;54;20391;-77
2023/01/31 15:41:11;;;;;;;26.13;19.03;;;6.90;99.90;;;;;;2615857;54;20388;-78
2023/01/31 15:46:58;;;;;;;28.30;20.30;;;6.90;99.90;;;;;;2615995;54;20379;-78
2023/01/31 15:52:46;;;;;;;30.60;18.40;;;6.90;99.90;;;;;;2616725;54;20238;-78
2023/01/31 15:58:36;;;;;;;26.50;18.57;;;6.90;99.90;;;;;;2616641;39;20503;-76
2023/01/31 16:04:24;;;;;;;20.93;13.83;;;7.00;99.90;;;;;;2615932;54;20374;-77
2023/01/31 16:10:13;;;;;;;29.07;17.90;;;7.10;99.90;;;;;;2616963;39;20241;-77
2023/01/31 16:16:03;;;;;;;22.80;15.43;;;7.20;99.90;;;;;;2616021;54;20403;-78
2023/01/31 16:21:53;;;;;;;15.57;11.97;;;7.30;99.90;;;;;;2615993;54;20392;-77
2023/01/31 16:27:45;;;;;;;16.70;12.60;;;7.30;99.90;;;;;;2614259;54;20371;-77
2023/01/31 16:33:34;;;;;;;21.30;16.60;;;7.40;99.90;;;;;;2615500;54;20534;-77
2023/01/31 16:39:40;;;;;;;17.30;11.80;;;7.40;99.90;;;;;;2615238;54;20434;-76
2023/01/31 16:45:31;;;;;;;17.30;14.27;;;7.40;99.90;;;;;;2615962;54;20447;-77
2023/01/31 16:51:24;;;;;;;14.10;11.00;;;7.40;99.90;;;;;;2613188;54;20394;-77
2023/01/31 16:57:24;;;;;;;12.70;9.50;;;7.50;99.90;;;;;;2614467;54;20431;-77
2023/01/31 17:03:18;;;;;;;14.20;10.87;;;7.50;99.90;;;;;;2615817;54;20519;-77
2023/01/31 17:09:11;;;;;;;16.57;10.50;;;7.50;99.90;;;;;;2615709;54;20387;-77
2023/01/31 17:15:00;;;;;;;13.43;10.37;;;7.70;99.90;;;;;;2615936;54;20421;-77
2023/01/31 17:20:49;;;;;;;16.23;12.10;;;7.70;99.90;;;;;;2615812;39;20781;-76
2023/01/31 17:26:37;;;;;;;14.90;9.97;;;7.70;99.90;;;;;;2615677;54;20422;-75
2023/01/31 17:32:24;;;;;;;13.60;9.83;;;7.80;99.90;;;;;;2616011;39;20526;-75
2023/01/31 17:38:12;;;;;;;20.47;9.67;;;7.70;99.90;;;;;;2611257;54;20131;-79
2023/01/31 17:44:05;;;;;;;22.40;11.50;;;7.70;99.90;;;;;;2614445;54;20150;-76
2023/01/31 17:49:53;;;;;;;17.50;9.53;;;7.70;99.90;;;;;;2613860;54;20379;-75
2023/01/31 17:55:41;;;;;;;22.33;13.83;;;7.70;99.90;;;;;;2615010;54;20391;-75
2023/01/31 18:01:30;;;;;;;20.40;11.27;;;7.80;99.90;;;;;;2614943;54;20154;-75
2023/01/31 18:07:17;;;;;;;20.70;11.47;;;7.60;99.90;;;;;;2615287;54;20511;-75
2023/01/31 18:13:05;;;;;;;20.93;10.47;;;7.60;99.90;;;;;;2615610;54;20158;-75
2023/01/31 18:18:54;;;;;;;15.57;8.00;;;7.70;99.90;;;;;;2616015;54;20126;-76
2023/01/31 18:24:41;;;;;;;14.27;9.23;;;7.70;99.90;;;;;;2616499;54;20460;-78
2023/01/31 18:30:32;;;;;;;14.20;7.63;;;7.60;99.90;;;;;;2616079;54;20403;-78
2023/01/31 18:36:21;;;;;;;15.10;8.27;;;7.70;99.90;;;;;;2614711;54;20446;-77
2023/01/31 18:42:15;;;;;;;20.73;10.13;;;7.60;99.90;;;;;;2616080;54;20379;-76
2023/01/31 18:48:03;;;;;;;13.60;8.67;;;7.50;99.90;;;;;;2615882;54;20475;-77
2023/01/31 18:53:54;;;;;;;7.60;5.13;;;7.50;99.90;;;;;;2616189;54;20150;-78
2023/01/31 18:59:41;;;;;;;11.60;7.90;;;7.30;99.90;;;;;;2616547;39;20782;-78
2023/01/31 19:05:29;;;;;;;15.27;7.83;;;7.20;99.90;;;;;;2614292;54;20174;-79
2023/01/31 19:08:33;;;;;;;18.57;8.33;;;7.10;99.90;;;;;;2615147;54;20411;-78
2023/01/31 19:11:03;;;;;;;16.53;5.70;;;7.00;99.90;;;;;;2614958;54;20177;-78
2023/01/31 19:16:51;;;;;;;21.77;7.37;;;7.10;99.90;;;;;;2616597;54;20446;-78
2023/01/31 19:22:39;;;;;;;20.03;8.10;;;7.00;99.90;;;;;;2615626;54;20456;-78
2023/01/31 19:28:27;;;;;;;17.57;7.80;;;7.00;99.90;;;;;;2615386;54;20711;-77
2023/01/31 19:38:36;;;;;;;8.10;5.57;;;6.90;99.90;;;;;;2616682;54;20660;-77
2023/01/31 19:44:24;;;;;;;15.37;7.00;;;7.00;99.90;;;;;;2615713;54;20384;-77
2023/01/31 19:50:18;;;;;;;14.40;6.37;;;6.90;99.90;;;;;;2616002;39;21111;-76
2023/01/31 19:56:06;;;;;;;13.47;6.83;;;6.70;99.90;;;;;;2616118;54;20378;-78
2023/01/31 20:01:54;;;;;;;14.03;7.50;;;6.60;99.90;;;;;;2614961;54;20378;-77
2023/01/31 20:07:42;;;;;;;11.10;7.10;;;6.50;99.90;;;;;;2615929;54;20628;-77
2023/01/31 20:13:31;;;;;;;17.93;8.80;;;6.50;99.90;;;;;;2616188;54;20441;-77
2023/01/31 20:19:21;;;;;;;14.30;8.20;;;6.50;99.90;;;;;;2616216;54;20438;-75
2023/01/31 20:25:09;;;;;;;15.73;7.70;;;6.40;99.90;;;;;;2615061;54;20418;-76
2023/01/31 20:31:03;;;;;;;22.20;9.47;;;6.40;99.90;;;;;;2616112;39;20562;-75
2023/01/31 20:34:05;;;;;;;19.23;11.27;;;6.20;99.90;;;;;;2615171;54;20407;-76
2023/01/31 20:36:31;;;;;;;17.80;10.00;;;6.20;99.90;;;;;;2614072;54;20394;-76
2023/01/31 20:42:19;;;;;;;21.77;10.77;;;6.00;99.90;;;;;;2613433;54;20126;-75
2023/01/31 20:48:06;;;;;;;29.70;10.00;;;6.10;99.90;;;;;;2615111;54;20907;-74
2023/01/31 20:53:55;;;;;;;19.30;10.93;;;5.90;99.90;;;;;;2614595;54;20146;-76
2023/01/31 20:59:43;;;;;;;20.40;11.07;;;6.10;99.90;;;;;;2615336;39;20648;-75
2023/01/31 21:05:33;;;;;;;27.00;9.93;;;6.00;99.90;;;;;;2613505;54;20243;-76
2023/01/31 21:11:21;;;;;;;17.07;9.67;;;6.00;99.90;;;;;;2613397;54;20423;-74
2023/01/31 21:17:09;;;;;;;23.13;9.97;;;6.10;99.90;;;;;;2613413;54;20395;-75
2023/01/31 21:22:57;;;;;;;25.23;8.63;;;6.10;99.90;;;;;;2615116;39;20471;-75
2023/01/31 21:28:45;;;;;;;46.57;7.10;;;6.10;99.90;;;;;;2614317;54;20130;-75
2023/01/31 21:38:38;;;;;;;18.40;8.30;;;6.20;99.90;;;;;;2613537;39;21187;-75
2023/01/31 21:44:26;;;;;;;14.33;7.90;;;6.10;99.90;;;;;;2615031;54;20407;-75
2023/01/31 21:46:52;;;;;;;12.37;6.70;;;5.90;99.90;;;;;;2616684;39;20781;-76
2023/01/31 21:49:21;;;;;;;11.33;6.33;;;6.00;99.90;;;;;;2615388;54;20163;-77
2023/01/31 21:55:09;;;;;;;14.80;7.33;;;5.90;99.90;;;;;;2616669;54;20403;-76
2023/01/31 22:07:34;;;;;;;16.13;8.40;;;5.90;99.90;;;;;;2617014;54;20407;-75
2023/01/31 22:13:23;;;;;;;19.40;7.60;;;5.60;99.90;;;;;;2617360;54;20417;-75
2023/01/31 22:19:12;;;;;;;23.40;10.73;;;5.70;99.90;;;;;;2617024;54;20475;-75
2023/01/31 22:25:00;;;;;;;10.27;7.57;;;5.90;99.90;;;;;;2616437;54;20399;-74
2023/01/31 22:30:56;;;;;;;24.03;11.60;;;5.80;99.90;;;;;;2616433;54;20146;-74
2023/01/31 22:34:07;;;;;;;18.67;12.90;;;6.00;99.90;;;;;;2616116;47;20435;-74
2023/01/31 22:36:33;;;;;;;22.73;11.63;;;5.90;99.90;;;;;;2616028;54;20518;-76
2023/01/31 22:42:21;;;;;;;19.23;11.40;;;5.80;99.90;;;;;;2616246;39;20862;-76
2023/01/31 22:48:08;;;;;;;31.20;12.57;;;6.00;99.90;;;;;;2615836;54;20671;-75
2023/01/31 22:53:57;;;;;;;34.97;15.50;;;5.70;99.90;;;;;;2616903;39;20595;-76
2023/01/31 22:59:44;;;;;;;21.67;12.17;;;5.90;99.90;;;;;;2616434;39;20792;-74
2023/01/31 23:05:32;;;;;;;26.80;13.50;;;5.90;99.90;;;;;;2614779;54;20644;-76
2023/01/31 23:11:20;;;;;;;25.20;12.43;;;6.00;99.90;;;;;;2616512;54;20131;-75
2023/01/31 23:23:15;;;;;;;26.73;14.60;;;6.00;99.90;;;;;;2616608;54;20370;-75
2023/01/31 23:29:03;;;;;;;20.43;14.03;;;6.00;99.90;;;;;;2617563;54;20149;-74
2023/01/31 23:38:38;;;;;;;22.17;13.23;;;6.00;99.90;;;;;;2617673;54;20390;-74
2023/01/31 23:44:25;;;;;;;29.40;14.70;;;6.00;99.90;;;;;;2617374;54;20447;-74
2023/01/31 23:50:13;;;;;;;19.43;11.00;;;6.20;99.90;;;;;;2617283;54;20123;-79
2023/01/31 23:56:01;;;;;;;27.47;10.47;;;6.10;99.90;;;;;;2617827;54;20117;-76
